Time;durP1;ratioP1;P1;durP2;ratioP2;P2;SDS_P1;SDS_P2;PMS_P1;PMS_P2;Temp;Humidity;BMP_temperature;BMP_pressure;BME280_temperature;BME280_humidity;BME280_pressure;Samples;Min_cycle;Max_cycle;Signal;HPM_P1;HPM_P2
2023/04/13 00:00:14;;;;;;;6.20;2.83;;;;;;;10.95;74.82;99634.88;5009098;28;20045;-76
2023/04/13 00:02:40;;;;;;;6.47;4.05;;;;;;;10.89;75.79;99630.31;5006732;28;20060;-76
2023/04/13 00:05:10;;;;;;;7.63;4.65;;;;;;;10.86;75.56;99630.69;5005080;28;20042;-76
2023/04/13 00:07:39;;;;;;;8.68;5.30;;;;;;;10.87;75.35;99624.47;5005791;28;20364;-76
2023/04/13 00:10:07;;;;;;;9.65;5.85;;;;;;;10.90;74.30;99621.53;5005415;28;20038;-76
2023/04/13 00:12:34;;;;;;;8.98;5.57;;;;;;;10.93;73.87;99628.19;5010138;28;20510;-76
2023/04/13 00:14:59;;;;;;;7.72;5.43;;;;;;;10.93;74.51;99634.22;5007927;28;20133;-76
2023/04/13 00:17:25;;;;;;;6.60;5.40;;;;;;;10.92;74.67;99632.59;5008146;28;20466;-76
2023/04/13 00:19:56;;;;;;;8.13;5.68;;;;;;;10.89;75.09;99630.31;5006742;28;20380;-76
2023/04/13 00:22:22;;;;;;;10.60;5.63;;;;;;;10.87;74.90;99619.25;5005930;28;20443;-76
2023/04/13 00:24:47;;;;;;;10.63;6.45;;;;;;;10.82;74.45;99618.97;5008821;28;20029;-76
2023/04/13 00:27:13;;;;;;;9.57;5.90;;;;;;;10.78;74.11;99612.47;5007462;28;20025;-77
2023/04/13 00:29:38;;;;;;;8.27;5.82;;;;;;;10.62;75.52;99607.28;5005857;28;21464;-76
2023/04/13 00:32:04;;;;;;;10.63;6.80;;;;;;;10.49;79.41;99609.56;5005527;28;20038;-76
2023/04/13 00:34:29;;;;;;;13.15;7.55;;;;;;;10.31;84.16;99604.56;5008978;28;20026;-76
2023/04/13 00:36:55;;;;;;;10.00;7.82;;;;;;;10.15;87.72;99602.72;5004346;28;20092;-76
2023/04/13 00:39:22;;;;;;;11.45;8.00;;;;;;;10.08;90.85;99614.75;5008153;28;20034;-76
2023/04/13 00:41:49;;;;;;;10.60;7.78;;;;;;;10.02;93.30;99609.38;5013000;28;20034;-76
2023/04/13 00:44:18;;;;;;;13.15;8.02;;;;;;;9.95;94.99;99606.59;5008728;28;20045;-76
2023/04/13 00:46:46;;;;;;;11.55;7.53;;;;;;;9.87;94.83;99599.63;5004926;28;20088;-76
2023/04/13 00:49:13;;;;;;;11.43;8.32;;;;;;;9.81;92.19;99592.47;5008992;28;20191;-76
2023/04/13 00:51:39;;;;;;;11.88;8.38;;;;;;;9.73;93.01;99591.63;5009053;28;20034;-76
2023/04/13 00:54:05;;;;;;;12.50;8.98;;;;;;;9.62;93.75;99580.56;5005786;28;20491;-75
2023/04/13 00:56:32;;;;;;;14.32;9.50;;;;;;;9.55;94.91;99570.94;5014263;28;20092;-73
2023/04/13 00:58:58;;;;;;;13.95;9.07;;;;;;;9.47;98.20;99574.34;5013142;28;20049;-73
2023/04/13 01:01:24;;;;;;;12.23;7.05;;;;;;;9.31;100.00;99574.31;5003316;28;20476;-73
2023/04/13 01:03:52;;;;;;;8.77;6.32;;;;;;;9.12;100.00;99577.16;5011849;28;20071;-73
2023/04/13 01:06:30;;;;;;;8.77;6.25;;;;;;;8.98;100.00;99576.78;5004841;28;21286;-73
2023/04/13 01:09:03;;;;;;;8.45;5.95;;;;;;;8.93;100.00;99576.47;5005491;28;20416;-73
2023/04/13 01:11:38;;;;;;;7.45;5.53;;;;;;;8.93;100.00;99581.66;5005702;28;20109;-72
2023/04/13 01:14:16;;;;;;;7.50;5.80;;;;;;;8.96;100.00;99580.53;5005615;28;20034;-73
2023/04/13 01:16:45;;;;;;;7.90;5.85;;;;;;;8.95;100.00;99577.13;5003253;28;20437;-74
2023/04/13 01:19:21;;;;;;;9.57;6.50;;;;;;;8.87;100.00;99576.25;5010188;28;20475;-73
2023/04/13 01:21:53;;;;;;;9.43;6.78;;;;;;;8.79;100.00;99569.22;4998842;28;20087;-73
2023/04/13 01:24:40;;;;;;;9.32;6.85;;;;;;;8.72;100.00;99563.03;5005956;28;20065;-73
2023/04/13 01:27:11;;;;;;;9.18;6.38;;;;;;;8.60;100.00;99564.25;5004979;28;20507;-73
2023/04/13 01:29:38;;;;;;;7.70;5.20;;;;;;;8.52;100.00;99577.19;5006400;28;20042;-73
2023/04/13 01:32:05;;;;;;;7.68;5.47;;;;;;;8.42;100.00;99572.13;5004332;28;20037;-73
2023/04/13 01:34:31;;;;;;;8.23;5.57;;;;;;;8.37;100.00;99574.34;5004925;28;20395;-73
2023/04/13 01:36:57;;;;;;;10.23;6.13;;;;;;;8.36;100.00;99561.53;5003768;28;20022;-72
2023/04/13 01:39:25;;;;;;;8.25;5.53;;;;;;;8.35;100.00;99555.50;5011341;28;20042;-73
2023/04/13 01:41:51;;;;;;;9.30;5.95;;;;;;;8.39;100.00;99550.84;5009169;28;20109;-73
2023/04/13 01:44:17;;;;;;;9.50;5.22;;;;;;;8.40;100.00;99544.69;5009337;28;20113;-73
2023/04/13 01:46:48;;;;;;;7.05;5.60;;;;;;;8.48;100.00;99550.75;5008671;28;20030;-73
2023/04/13 01:49:17;;;;;;;8.60;5.65;;;;;;;8.55;100.00;99546.53;5002574;28;20127;-73
2023/04/13 01:51:44;;;;;;;9.00;5.20;;;;;;;8.53;100.00;99545.06;5001397;28;20458;-73
2023/04/13 01:54:17;;;;;;;7.13;5.85;;;;;;;8.57;100.00;99541.19;5002768;28;20522;-72
2023/04/13 01:56:43;;;;;;;8.60;6.93;;;;;;;8.63;100.00;99532.78;5006923;28;20038;-73
2023/04/13 01:59:09;;;;;;;10.07;6.90;;;;;;;8.67;100.00;99539.31;5005682;28;20145;-73
2023/04/13 02:01:36;;;;;;;9.43;6.78;;;;;;;8.64;100.00;99537.81;5005074;28;20030;-73
2023/04/13 02:04:02;;;;;;;10.05;6.40;;;;;;;8.66;100.00;99532.47;5010064;28;20117;-73
2023/04/13 02:06:27;;;;;;;8.43;6.22;;;;;;;8.64;100.00;99524.84;5007288;28;20044;-73
2023/04/13 02:08:53;;;;;;;8.75;6.22;;;;;;;8.70;100.00;99533.78;5003899;28;20131;-73
2023/04/13 02:11:19;;;;;;;9.77;6.70;;;;;;;8.77;100.00;99526.22;5010082;28;20502;-73
2023/04/13 02:13:44;;;;;;;12.38;7.72;;;;;;;8.79;100.00;99522.47;5011725;28;20034;-73
2023/04/13 02:16:10;;;;;;;11.43;6.93;;;;;;;8.80;100.00;99521.50;5007695;28;20477;-73
2023/04/13 02:18:35;;;;;;;10.93;6.97;;;;;;;8.81;100.00;99528.34;5005836;28;20049;-73
2023/04/13 02:21:07;;;;;;;11.35;7.15;;;;;;;8.84;100.00;99520.22;5009794;28;20030;-74
2023/04/13 02:23:33;;;;;;;9.57;7.47;;;;;;;8.88;100.00;99529.34;5002090;28;20494;-73
2023/04/13 02:25:59;;;;;;;10.98;7.40;;;;;;;8.86;100.00;99523.50;5004327;28;20123;-73
2023/04/13 02:28:26;;;;;;;8.02;6.30;;;;;;;8.75;100.00;99517.75;5009961;28;20072;-73
2023/04/13 02:30:53;;;;;;;8.80;6.88;;;;;;;8.76;100.00;99520.19;5009721;28;20026;-73
2023/04/13 02:33:20;;;;;;;12.10;7.78;;;;;;;8.70;100.00;99514.81;5008485;28;20037;-73
2023/04/13 02:35:49;;;;;;;10.77;6.45;;;;;;;8.68;100.00;99514.16;5003184;28;20030;-73
2023/04/13 02:38:15;;;;;;;10.55;6.85;;;;;;;8.70;100.00;99518.22;5005072;28;20450;-73
2023/04/13 02:40:42;;;;;;;9.65;6.68;;;;;;;8.64;100.00;99516.25;5012659;28;20041;-73
2023/04/13 02:43:08;;;;;;;9.57;7.57;;;;;;;8.68;100.00;99512.38;5010048;28;20038;-73
2023/04/13 02:45:34;;;;;;;9.13;6.78;;;;;;;8.64;100.00;99511.03;5014435;28;20170;-73
2023/04/13 02:47:59;;;;;;;11.00;6.68;;;;;;;8.66;100.00;99498.72;5007684;28;20479;-73
2023/04/13 02:50:26;;;;;;;10.75;6.88;;;;;;;8.63;100.00;99504.22;5008322;28;20394;-73
2023/04/13 02:52:52;;;;;;;8.82;6.75;;;;;;;8.60;100.00;99504.53;5006110;28;20038;-73
2023/04/13 02:55:17;;;;;;;11.50;6.75;;;;;;;8.58;100.00;99498.69;5010245;28;20513;-73
2023/04/13 02:57:43;;;;;;;11.20;7.35;;;;;;;8.60;100.00;99496.75;5008806;28;20026;-72
2023/04/13 03:00:09;;;;;;;10.77;7.40;;;;;;;8.62;100.00;99492.22;5008463;28;20069;-74
2023/04/13 03:02:36;;;;;;;11.18;6.70;;;;;;;8.64;100.00;99492.88;5008813;28;20447;-73
2023/04/13 03:05:04;;;;;;;11.07;7.97;;;;;;;8.64;100.00;99490.28;5004981;28;20160;-74
2023/04/13 03:07:30;;;;;;;13.27;8.65;;;;;;;8.67;100.00;99484.78;5008028;28;20313;-74
2023/04/13 03:09:56;;;;;;;12.23;8.32;;;;;;;8.71;100.00;99480.88;5007834;28;20034;-74
2023/04/13 03:12:21;;;;;;;12.13;8.85;;;;;;;8.68;100.00;99473.41;5009089;28;20034;-73
2023/04/13 03:14:48;;;;;;;10.82;8.55;;;;;;;8.62;100.00;99481.81;5017843;28;20033;-74
2023/04/13 03:17:15;;;;;;;13.07;8.45;;;;;;;8.63;100.00;99475.66;5013690;28;20044;-74
2023/04/13 03:19:45;;;;;;;13.05;9.23;;;;;;;8.64;100.00;99475.50;5003104;28;20033;-74
2023/04/13 03:22:11;;;;;;;14.65;10.15;;;;;;;8.70;100.00;99475.84;5007011;28;20045;-74
2023/04/13 03:24:37;;;;;;;16.50;9.77;;;;;;;8.75;100.00;99471.81;5009268;28;20033;-75
2023/04/13 03:27:03;;;;;;;15.50;11.07;;;;;;;8.79;100.00;99473.13;5010476;28;20125;-75
2023/04/13 03:29:28;;;;;;;16.88;12.35;;;;;;;8.78;100.00;99462.91;5012094;28;20058;-74
2023/04/13 03:31:53;;;;;;;12.05;9.90;;;;;;;8.79;100.00;99474.91;5016390;28;20149;-75
2023/04/13 03:34:19;;;;;;;14.23;9.50;;;;;;;8.74;100.00;99471.97;5012742;28;20499;-75
2023/04/13 03:36:45;;;;;;;12.23;8.75;;;;;;;8.73;100.00;99470.34;5012572;28;20033;-75
2023/04/13 03:39:10;;;;;;;11.20;8.80;;;;;;;8.60;100.00;99474.19;4997913;28;20035;-74
2023/04/13 03:41:36;;;;;;;10.85;7.88;;;;;;;8.50;100.00;99465.72;5006128;28;20033;-74
2023/04/13 03:44:01;;;;;;;13.23;8.82;;;;;;;8.45;100.00;99467.16;5007464;28;20030;-74
2023/04/13 03:46:27;;;;;;;12.18;9.10;;;;;;;8.46;100.00;99464.41;5000335;28;20042;-75
2023/04/13 03:48:52;;;;;;;12.50;8.38;;;;;;;8.44;100.00;99468.13;5003496;28;20096;-74
2023/04/13 03:51:17;;;;;;;15.02;9.63;;;;;;;8.45;100.00;99477.53;5005601;28;20116;-74
2023/04/13 03:53:43;;;;;;;11.93;9.05;;;;;;;8.44;100.00;99471.53;5008030;28;20034;-75
2023/04/13 03:56:08;;;;;;;11.90;8.25;;;;;;;8.45;100.00;99472.34;5003899;28;20038;-75
2023/04/13 03:58:34;;;;;;;10.35;7.93;;;;;;;8.40;100.00;99472.00;5007687;28;20025;-75
2023/04/13 04:00:59;;;;;;;12.20;9.55;;;;;;;8.41;100.00;99471.84;5004200;28;20061;-75
2023/04/13 04:03:25;;;;;;;11.32;8.70;;;;;;;8.36;100.00;99465.50;5021876;28;20029;-74
2023/04/13 04:05:51;;;;;;;14.43;9.43;;;;;;;8.32;100.00;99463.19;5011268;28;20042;-75
2023/04/13 04:08:16;;;;;;;12.35;9.82;;;;;;;8.35;100.00;99471.66;5009587;28;20077;-76
2023/04/13 04:10:42;;;;;;;14.70;10.75;;;;;;;8.32;100.00;99462.34;5012258;28;20061;-74
2023/04/13 04:13:07;;;;;;;12.75;10.57;;;;;;;8.31;100.00;99460.72;5012501;28;20029;-75
2023/04/13 04:15:33;;;;;;;15.35;10.52;;;;;;;8.28;100.00;99456.66;5007695;28;20037;-74
2023/04/13 04:17:59;;;;;;;12.80;9.60;;;;;;;8.28;100.00;99443.69;5008532;28;20086;-74
2023/04/13 04:20:24;;;;;;;14.20;10.48;;;;;;;8.29;100.00;99441.91;5002840;28;20115;-74
2023/04/13 04:22:51;;;;;;;12.45;9.20;;;;;;;8.30;100.00;99439.16;5009237;28;20038;-75
2023/04/13 04:25:20;;;;;;;13.50;10.27;;;;;;;8.36;100.00;99439.53;5008870;28;20770;-74
2023/04/13 04:27:51;;;;;;;14.90;10.43;;;;;;;8.41;100.00;99429.50;5017077;28;20166;-75
2023/04/13 04:30:20;;;;;;;14.05;10.55;;;;;;;8.38;100.00;99428.03;5000193;28;20467;-74
2023/04/13 04:32:46;;;;;;;15.90;10.50;;;;;;;8.36;100.00;99431.75;5007875;28;20076;-75
2023/04/13 04:35:13;;;;;;;19.13;11.40;;;;;;;8.45;100.00;99428.22;5020531;28;20033;-75
2023/04/13 04:37:39;;;;;;;18.23;13.00;;;;;;;8.51;100.00;99425.78;5013849;28;20041;-76
2023/04/13 04:40:09;;;;;;;30.42;13.38;;;;;;;8.56;100.00;99430.50;5011800;28;20091;-76
2023/04/13 04:42:37;;;;;;;17.08;11.80;;;;;;;8.54;100.00;99422.88;5007948;28;20129;-75
2023/04/13 04:45:06;;;;;;;15.55;9.93;;;;;;;8.53;100.00;99428.22;5008935;28;20025;-75
2023/04/13 04:47:36;;;;;;;13.18;9.75;;;;;;;8.58;100.00;99424.19;5009447;28;20827;-74
2023/04/13 04:50:02;;;;;;;14.60;9.57;;;;;;;8.58;100.00;99420.78;5009303;28;20075;-75
2023/04/13 04:52:28;;;;;;;12.85;9.10;;;;;;;8.54;100.00;99420.28;5011581;28;20075;-75
2023/04/13 04:54:54;;;;;;;13.18;8.45;;;;;;;8.52;100.00;99414.44;5011750;28;20116;-75
2023/04/13 04:57:19;;;;;;;12.82;8.70;;;;;;;8.53;100.00;99418.66;5006652;28;20125;-72
2023/04/13 04:59:45;;;;;;;11.80;8.25;;;;;;;8.58;100.00;99413.81;5004798;28;20041;-73
2023/04/13 05:02:10;;;;;;;12.20;8.65;;;;;;;8.63;100.00;99410.75;5007043;28;20502;-73
2023/04/13 05:04:36;;;;;;;10.65;8.18;;;;;;;8.69;100.00;99417.91;5010877;28;20030;-75
2023/04/13 05:07:01;;;;;;;14.23;8.98;;;;;;;8.75;100.00;99419.06;5012571;28;20038;-74
2023/04/13 05:09:27;;;;;;;13.20;8.65;;;;;;;8.73;100.00;99421.00;5011471;28;20049;-73
2023/04/13 05:11:53;;;;;;;11.43;7.85;;;;;;;8.74;100.00;99410.47;5008758;28;20124;-74
2023/04/13 05:14:18;;;;;;;10.18;6.97;;;;;;;8.77;100.00;99404.13;5011176;28;20040;-72
2023/04/13 05:16:44;;;;;;;11.45;7.20;;;;;;;8.82;100.00;99405.28;5006536;28;20042;-73
2023/04/13 05:19:11;;;;;;;8.57;6.68;;;;;;;8.84;100.00;99400.75;5006347;28;20029;-73
2023/04/13 05:21:36;;;;;;;9.52;6.95;;;;;;;8.89;100.00;99403.69;5005652;28;20072;-74
2023/04/13 05:24:03;;;;;;;11.77;8.18;;;;;;;8.95;100.00;99408.25;5007071;28;20029;-74
2023/04/13 05:26:29;;;;;;;17.88;8.50;;;;;;;9.02;100.00;99402.38;5010214;28;20032;-74
2023/04/13 05:28:55;;;;;;;12.77;8.98;;;;;;;9.09;100.00;99411.16;5006249;28;20099;-74
2023/04/13 05:31:23;;;;;;;14.35;10.25;;;;;;;9.07;100.00;99400.94;5005473;28;20095;-75
2023/04/13 05:33:48;;;;;;;13.32;10.05;;;;;;;9.04;100.00;99395.25;5008934;28;20068;-74
2023/04/13 05:36:14;;;;;;;11.95;8.50;;;;;;;8.98;100.00;99394.09;5003290;28;20088;-74
2023/04/13 05:38:39;;;;;;;14.43;8.85;;;;;;;8.96;100.00;99402.09;5007020;28;20030;-74
2023/04/13 05:41:06;;;;;;;13.88;9.15;;;;;;;8.96;100.00;99415.06;5004207;28;20041;-74
2023/04/13 05:43:32;;;;;;;14.63;9.25;;;;;;;9.01;100.00;99403.34;5011035;28;20022;-74
2023/04/13 05:45:58;;;;;;;14.77;9.02;;;;;;;9.02;100.00;99392.81;5009516;28;20129;-74
2023/04/13 05:48:24;;;;;;;18.02;10.98;;;;;;;9.09;100.00;99404.19;5009590;28;20550;-74
2023/04/13 05:50:49;;;;;;;13.05;9.90;;;;;;;9.16;100.00;99393.97;5012136;28;20033;-74
2023/04/13 05:53:14;;;;;;;17.60;9.48;;;;;;;9.23;100.00;99403.56;5009341;28;20033;-74
2023/04/13 05:55:42;;;;;;;17.05;10.00;;;;;;;9.29;100.00;99394.31;5007591;28;20129;-74
2023/04/13 05:58:09;;;;;;;14.57;8.90;;;;;;;9.29;100.00;99389.09;5012789;28;20042;-74
2023/04/13 06:00:36;;;;;;;19.83;10.38;;;;;;;9.34;100.00;99383.44;5003494;28;20068;-74
2023/04/13 06:03:02;;;;;;;11.45;8.93;;;;;;;9.28;100.00;99383.09;5010771;28;20033;-73
2023/04/13 06:05:28;;;;;;;15.68;9.90;;;;;;;9.29;100.00;99386.50;5010053;28;20076;-74
2023/04/13 06:07:53;;;;;;;20.92;10.48;;;;;;;9.37;100.00;99396.91;5010380;28;20029;-73
2023/04/13 06:10:19;;;;;;;13.98;8.85;;;;;;;9.35;100.00;99388.47;5015035;28;20046;-73
2023/04/13 06:12:47;;;;;;;14.38;8.40;;;;;;;9.33;100.00;99377.41;5011765;28;20029;-72
2023/04/13 06:15:13;;;;;;;13.68;8.30;;;;;;;9.31;100.00;99387.97;5009702;28;20037;-73
2023/04/13 06:17:40;;;;;;;14.65;8.77;;;;;;;9.40;100.00;99390.56;5011392;28;20399;-73
2023/04/13 06:20:07;;;;;;;12.23;9.25;;;;;;;9.42;100.00;99392.03;5015490;28;20064;-73
2023/04/13 06:22:33;;;;;;;16.60;9.60;;;;;;;9.49;100.00;99385.19;5007404;28;20511;-75
2023/04/13 06:24:58;;;;;;;37.40;9.90;;;;;;;9.55;100.00;99389.72;5013766;28;20042;-73
2023/04/13 06:27:25;;;;;;;23.58;9.52;;;;;;;9.56;100.00;99395.75;5008368;28;20041;-73
2023/04/13 06:29:51;;;;;;;12.63;8.35;;;;;;;9.56;100.00;99386.16;5018195;28;20041;-73
2023/04/13 06:32:17;;;;;;;9.50;6.85;;;;;;;9.52;100.00;99382.25;5013579;28;20041;-72
2023/04/13 06:34:44;;;;;;;9.27;7.20;;;;;;;9.54;100.00;99382.91;5008308;28;20026;-72
2023/04/13 06:37:10;;;;;;;8.32;5.70;;;;;;;9.54;100.00;99385.50;5014380;28;20058;-72
2023/04/13 06:39:36;;;;;;;7.65;5.70;;;;;;;9.55;100.00;99389.72;5019830;28;20083;-73
2023/04/13 06:42:03;;;;;;;7.13;4.63;;;;;;;9.55;100.00;99389.72;5007517;28;20120;-72
2023/04/13 06:44:28;;;;;;;9.15;5.03;;;;;;;9.55;100.00;99383.72;5012632;28;20026;-73
2023/04/13 06:46:54;;;;;;;8.43;5.00;;;;;;;9.56;100.00;99387.94;5015195;28;20128;-72
2023/04/13 06:49:20;;;;;;;9.18;5.88;;;;;;;9.58;100.00;99378.19;5011467;28;20155;-73
2023/04/13 06:51:46;;;;;;;6.60;4.60;;;;;;;9.61;100.00;99383.88;5011855;28;20572;-73
2023/04/13 06:54:12;;;;;;;7.47;4.70;;;;;;;9.65;100.00;99376.56;5012688;28;20033;-72
2023/04/13 06:56:37;;;;;;;9.93;4.15;;;;;;;9.69;100.00;99380.47;5011257;28;20040;-73
2023/04/13 06:59:02;;;;;;;8.68;5.70;;;;;;;9.73;100.00;99386.16;5011052;28;20034;-73
2023/04/13 07:01:28;;;;;;;7.53;5.50;;;;;;;9.76;100.00;99391.84;5008498;28;20030;-72
2023/04/13 07:03:53;;;;;;;9.13;5.38;;;;;;;9.80;100.00;99376.72;5010711;28;20056;-72
2023/04/13 07:06:20;;;;;;;7.68;4.13;;;;;;;9.80;100.00;99376.72;5015799;28;20137;-72
2023/04/13 07:08:46;;;;;;;8.48;4.80;;;;;;;9.82;100.00;99379.97;5011207;28;20076;-72
2023/04/13 07:11:12;;;;;;;6.75;4.75;;;;;;;9.83;100.00;99376.38;5012954;28;20034;-72
2023/04/13 07:13:38;;;;;;;8.00;6.47;;;;;;;9.82;100.00;99370.38;5014518;28;20471;-72
2023/04/13 07:16:04;;;;;;;10.02;5.22;;;;;;;9.83;100.00;99369.38;5010746;28;20129;-73
2023/04/13 07:18:30;;;;;;;8.25;5.05;;;;;;;9.84;100.00;99376.22;5010398;28;20153;-72
2023/04/13 07:20:55;;;;;;;8.38;5.47;;;;;;;9.84;100.00;99380.59;5009789;28;20034;-73
2023/04/13 07:23:21;;;;;;;12.35;5.80;;;;;;;9.86;100.00;99381.25;5010445;28;20446;-73
2023/04/13 07:25:47;;;;;;;8.00;5.70;;;;;;;9.86;100.00;99382.06;5015498;28;20040;-73
2023/04/13 07:28:12;;;;;;;9.50;5.72;;;;;;;9.82;100.00;99387.75;5006029;28;20038;-72
2023/04/13 07:30:45;;;;;;;6.82;4.85;;;;;;;9.82;100.00;99390.38;5004817;28;20044;-75
2023/04/13 07:33:11;;;;;;;7.07;4.97;;;;;;;9.84;100.00;99394.44;5014115;28;20431;-74
2023/04/13 07:35:37;;;;;;;8.98;5.95;;;;;;;9.86;100.00;99396.88;5016347;28;20025;-74
2023/04/13 07:38:03;;;;;;;8.02;6.00;;;;;;;9.89;100.00;99404.34;5008352;28;20037;-76
2023/04/13 07:40:28;;;;;;;8.60;6.22;;;;;;;9.91;100.00;99392.78;5008931;28;20105;-75
2023/04/13 07:42:54;;;;;;;12.90;6.03;;;;;;;9.90;100.00;99400.75;5011144;28;20460;-75
2023/04/13 07:45:19;;;;;;;9.73;5.32;;;;;;;9.89;100.00;99401.72;5011699;28;20030;-74
2023/04/13 07:47:46;;;;;;;9.60;5.63;;;;;;;9.88;100.00;99402.72;5011345;28;20025;-74
2023/04/13 07:50:12;;;;;;;11.27;5.60;;;;;;;9.86;100.00;99389.06;5008855;28;20037;-75
2023/04/13 07:52:38;;;;;;;9.15;6.07;;;;;;;9.89;100.00;99401.72;5006543;28;20502;-75
2023/04/13 07:55:04;;;;;;;13.23;6.90;;;;;;;9.93;100.00;99403.81;5008087;28;20084;-74
2023/04/13 07:57:30;;;;;;;9.95;6.78;;;;;;;9.94;100.00;99409.81;5016714;28;20602;-73
2023/04/13 07:59:55;;;;;;;16.25;7.10;;;;;;;9.96;100.00;99419.09;5009730;28;20051;-73
2023/04/13 08:02:21;;;;;;;14.90;6.45;;;;;;;9.98;100.00;99416.31;5010593;28;20200;-77
2023/04/13 08:04:47;;;;;;;9.95;5.70;;;;;;;9.97;100.00;99425.09;5006709;28;20312;-75
2023/04/13 08:07:13;;;;;;;14.57;6.53;;;;;;;10.01;100.00;99416.00;5013621;28;20129;-74
2023/04/13 08:09:40;;;;;;;9.32;6.25;;;;;;;10.02;100.00;99411.59;5015505;28;20034;-74
2023/04/13 08:12:07;;;;;;;16.92;6.75;;;;;;;9.98;100.00;99411.94;5011670;28;20039;-73
2023/04/13 08:14:32;;;;;;;9.88;5.57;;;;;;;9.96;100.00;99405.28;5015227;28;20439;-74
2023/04/13 08:16:58;;;;;;;6.32;5.25;;;;;;;9.90;100.00;99409.38;5011694;28;20033;-72
2023/04/13 08:19:23;;;;;;;11.23;6.45;;;;;;;9.91;100.00;99415.41;5010009;28;20095;-74
2023/04/13 08:21:50;;;;;;;9.05;6.70;;;;;;;9.92;100.00;99404.78;5007147;28;20064;-74
2023/04/13 08:24:15;;;;;;;7.97;5.38;;;;;;;9.91;100.00;99404.97;5007870;28;20022;-73
2023/04/13 08:26:41;;;;;;;11.38;6.13;;;;;;;9.93;100.00;99403.00;5009876;28;20091;-74
2023/04/13 08:29:07;;;;;;;9.20;5.95;;;;;;;9.94;100.00;99404.63;5012329;28;20118;-75
2023/04/13 08:31:33;;;;;;;8.38;4.97;;;;;;;9.92;100.00;99406.59;5011262;28;20178;-74
2023/04/13 08:33:58;;;;;;;8.23;5.65;;;;;;;9.95;100.00;99407.06;5018878;28;20613;-76
2023/04/13 08:36:24;;;;;;;7.82;5.82;;;;;;;9.94;100.00;99413.25;5011790;28;20049;-74
2023/04/13 08:38:49;;;;;;;8.50;5.78;;;;;;;10.00;100.00;99419.56;5013495;28;20482;-75
2023/04/13 08:41:20;;;;;;;10.57;6.43;;;;;;;10.02;100.00;99422.00;5018902;28;20398;-75
2023/04/13 08:43:46;;;;;;;8.63;5.38;;;;;;;10.04;100.00;99425.25;5016882;28;20028;-75
2023/04/13 08:46:18;;;;;;;7.57;5.65;;;;;;;10.06;100.00;99423.31;5007326;28;20050;-74
2023/04/13 08:48:45;;;;;;;8.10;5.40;;;;;;;10.08;100.00;99418.75;5017299;28;20099;-75
2023/04/13 08:51:12;;;;;;;8.75;4.80;;;;;;;10.12;100.00;99415.66;5007848;28;20116;-75
2023/04/13 08:53:37;;;;;;;10.02;5.95;;;;;;;10.14;100.00;99416.28;5006820;28;20117;-75
2023/04/13 08:56:07;;;;;;;7.15;5.88;;;;;;;10.17;100.00;99413.38;5017512;28;20133;-76
2023/04/13 08:58:34;;;;;;;10.98;5.28;;;;;;;10.22;100.00;99403.28;5010870;28;20079;-75
2023/04/13 09:01:00;;;;;;;9.18;5.80;;;;;;;10.24;100.00;99401.34;5011392;28;20029;-74
2023/04/13 09:03:28;;;;;;;7.65;5.28;;;;;;;10.23;100.00;99404.91;5007540;28;20036;-74
2023/04/13 09:06:02;;;;;;;9.00;5.47;;;;;;;10.25;100.00;99410.78;5012973;28;20136;-74
2023/04/13 09:08:34;;;;;;;10.10;6.78;;;;;;;10.26;100.00;99409.78;5009203;28;20441;-75
2023/04/13 09:11:00;;;;;;;8.20;6.03;;;;;;;10.27;100.00;99410.59;5014815;28;20091;-75
2023/04/13 09:13:25;;;;;;;8.38;6.38;;;;;;;10.28;100.00;99402.63;5007263;28;20030;-74
2023/04/13 09:15:51;;;;;;;14.45;7.00;;;;;;;10.30;100.00;99392.03;5007408;28;20116;-74
2023/04/13 09:18:17;;;;;;;10.30;6.88;;;;;;;10.37;100.00;99389.59;5001593;28;20221;-74
2023/04/13 09:20:54;;;;;;;9.07;5.82;;;;;;;10.39;100.00;99393.63;5018004;28;20037;-75
2023/04/13 09:23:19;;;;;;;12.18;6.00;;;;;;;10.44;100.00;99390.50;5011320;28;20040;-75
2023/04/13 09:25:46;;;;;;;8.45;5.38;;;;;;;10.49;100.00;99396.00;5010758;28;20029;-75
2023/04/13 09:28:16;;;;;;;8.73;5.70;;;;;;;10.50;100.00;99388.03;5006020;28;20044;-75
2023/04/13 09:30:41;;;;;;;6.78;4.97;;;;;;;10.52;100.00;99387.88;5007803;28;20037;-75
2023/04/13 09:33:09;;;;;;;7.45;4.20;;;;;;;10.52;100.00;99396.50;4999697;28;20030;-73
2023/04/13 09:35:35;;;;;;;7.72;5.03;;;;;;;10.51;100.00;99387.06;5002111;28;20033;-73
2023/04/13 09:38:01;;;;;;;9.73;5.72;;;;;;;10.55;100.00;99387.53;4998351;28;20132;-74
2023/04/13 09:40:27;;;;;;;6.53;4.88;;;;;;;10.53;100.00;99385.09;5016004;28;20030;-74
2023/04/13 09:43:01;;;;;;;6.57;5.15;;;;;;;10.55;100.00;99383.13;5014737;28;20397;-73
2023/04/13 09:45:37;;;;;;;7.03;4.78;;;;;;;10.55;100.00;99377.09;5006177;28;20030;-74
2023/04/13 09:48:21;;;;;;;;;;;;;;;10.53;100.00;99374.66;5004557;28;20120;-73
2023/04/13 09:51:05;;;;;;;6.45;5.10;;;;;;;10.54;100.00;99378.09;5004375;28;20333;-73
2023/04/13 09:53:48;;;;;;;10.02;5.53;;;;;;;10.54;100.00;99368.47;4998910;28;21095;-73
2023/04/13 09:56:15;;;;;;;6.35;4.82;;;;;;;10.57;100.00;99369.94;4998249;28;20030;-74
2023/04/13 09:58:42;;;;;;;6.10;4.20;;;;;;;10.57;100.00;99359.50;5008026;28;20038;-74
2023/04/13 10:01:08;;;;;;;9.65;5.03;;;;;;;10.57;100.00;99365.53;5002392;28;20037;-73
2023/04/13 10:03:36;;;;;;;8.48;4.90;;;;;;;10.61;100.00;99366.00;5001579;28;20052;-74
2023/04/13 10:06:06;;;;;;;8.35;4.75;;;;;;;10.58;100.00;99361.13;5000408;28;20104;-74
2023/04/13 10:08:32;;;;;;;6.93;4.65;;;;;;;10.54;100.00;99360.66;5009972;28;20042;-74
2023/04/13 10:11:00;;;;;;;8.88;4.13;;;;;;;10.54;100.00;99354.66;5006966;28;20634;-75
2023/04/13 10:13:33;;;;;;;10.75;5.53;;;;;;;10.53;100.00;99342.59;5010857;28;20121;-74
2023/04/13 10:16:25;;;;;;;7.45;5.13;;;;;;;10.52;100.00;99357.41;4998856;28;20399;-74
2023/04/13 10:18:51;;;;;;;10.35;5.57;;;;;;;10.53;100.00;99346.03;4996993;28;20034;-75
2023/04/13 10:21:17;;;;;;;6.07;4.40;;;;;;;10.53;100.00;99346.03;4999154;28;20042;-75
2023/04/13 10:23:43;;;;;;;8.60;4.35;;;;;;;10.53;100.00;99348.63;5004426;28;20037;-75
2023/04/13 10:26:09;;;;;;;6.28;3.50;;;;;;;10.52;100.00;99347.00;5006515;28;20411;-75
2023/04/13 10:28:47;;;;;;;6.15;4.55;;;;;;;10.50;100.00;99341.16;5000907;28;20096;-75
2023/04/13 10:31:13;;;;;;;6.07;4.20;;;;;;;10.48;100.00;99332.69;4999943;28;20100;-73
2023/04/13 10:33:50;;;;;;;7.35;4.75;;;;;;;10.50;100.00;99342.94;5003446;28;20034;-75
2023/04/13 10:36:16;;;;;;;4.88;4.07;;;;;;;10.49;100.00;99343.94;5000672;28;20038;-75
2023/04/13 10:38:43;;;;;;;6.63;4.72;;;;;;;10.50;100.00;99335.13;5010662;28;20026;-74
2023/04/13 10:41:08;;;;;;;6.25;4.13;;;;;;;10.50;100.00;99327.31;5009172;28;20581;-75
2023/04/13 10:43:34;;;;;;;7.47;4.40;;;;;;;10.53;100.00;99321.78;5003437;28;20030;-75
2023/04/13 10:46:12;;;;;;;5.60;3.72;;;;;;;10.49;100.00;99325.69;5006371;28;20187;-74
2023/04/13 10:48:40;;;;;;;8.00;4.45;;;;;;;10.49;100.00;99326.50;5008878;28;20038;-75
2023/04/13 10:51:06;;;;;;;7.82;3.58;;;;;;;10.51;100.00;99323.75;5009106;28;20076;-74
2023/04/13 10:53:33;;;;;;;9.93;5.50;;;;;;;10.52;100.00;99313.16;5008685;28;20091;-75
2023/04/13 10:56:00;;;;;;;7.30;3.58;;;;;;;10.50;100.00;99307.31;5007344;28;20060;-74
2023/04/13 10:58:28;;;;;;;4.90;3.08;;;;;;;10.51;100.00;99297.69;5004413;28;20030;-74
2023/04/13 11:00:54;;;;;;;4.60;3.08;;;;;;;10.52;100.00;99294.91;5023203;28;20124;-75
2023/04/13 11:03:20;;;;;;;6.82;3.95;;;;;;;10.55;100.00;99307.59;5019202;28;20153;-73
2023/04/13 11:05:47;;;;;;;6.55;3.50;;;;;;;10.52;100.00;99301.91;5018637;28;20108;-74
2023/04/13 11:08:17;;;;;;;4.22;3.15;;;;;;;10.49;100.00;99303.06;5016171;28;20072;-74
2023/04/13 11:10:50;;;;;;;3.65;3.08;;;;;;;10.48;100.00;99293.63;5017386;28;20034;-74
2023/04/13 11:13:15;;;;;;;5.22;3.20;;;;;;;10.49;100.00;99303.06;5006483;28;20041;-74
2023/04/13 11:15:40;;;;;;;7.72;2.90;;;;;;;10.49;100.00;99297.06;5006424;28;20428;-74
2023/04/13 11:18:06;;;;;;;6.70;3.53;;;;;;;10.49;100.00;99294.44;5010206;28;20049;-75
2023/04/13 11:20:39;;;;;;;6.22;4.47;;;;;;;10.49;100.00;99286.63;5002666;28;20064;-74
2023/04/13 11:23:14;;;;;;;4.88;3.03;;;;;;;10.48;100.00;99293.63;5003809;28;20034;-74
2023/04/13 11:25:53;;;;;;;4.82;3.05;;;;;;;10.46;100.00;99297.41;5011496;28;20104;-74